Weather at Newman Airport

Public forecast

Using degrees Celsius for public forecast. Weather courtesy of forecast.io.

Closest aviation weather report (METAR) to Newman Airport

Closest report is Port Hedland International Airport, 193.9 nm (359.2 km) NNW.

2024/02/25 09:00 (retrieved 27 minutes ago)

YPPD 250900Z AUTO 30018KT 9999 // NCD 33/24 Q1006 RF000/0000

Closest aviation forecast (TAF) to Newman Airport

Closest forecast is Port Hedland International Airport, 193.9 nm (359.2 km) NNW.

2024/02/25 06:36 (retrieved 3 hours ago)

TAF YPPD 250501Z 2506/2606 28018KT CAVOK FM251100 27014KT 9999 SCT015 FM260000 28018KT CAVOK